sensor_id;sensor_type;location;lat;lon;timestamp;P1;durP1;ratioP1;P2;durP2;ratioP2
249;SDS011;109;19.806;-70.704;2023-06-14T00:02:21;33.47;;;7.57;;
249;SDS011;109;19.806;-70.704;2023-06-14T00:04:47;22.10;;;6.90;;
249;SDS011;109;19.806;-70.704;2023-06-14T00:07:16;30.10;;;7.70;;
249;SDS011;109;19.806;-70.704;2023-06-14T00:09:44;34.90;;;7.60;;
249;SDS011;109;19.806;-70.704;2023-06-14T00:12:10;29.27;;;7.07;;
249;SDS011;109;19.806;-70.704;2023-06-14T00:14:37;30.73;;;6.73;;
249;SDS011;109;19.806;-70.704;2023-06-14T00:17:03;30.67;;;7.10;;
249;SDS011;109;19.806;-70.704;2023-06-14T00:19:30;29.03;;;6.50;;
249;SDS011;109;19.806;-70.704;2023-06-14T00:22:00;30.80;;;6.73;;
249;SDS011;109;19.806;-70.704;2023-06-14T00:24:26;25.20;;;6.13;;
249;SDS011;109;19.806;-70.704;2023-06-14T00:26:52;24.67;;;6.00;;
249;SDS011;109;19.806;-70.704;2023-06-14T00:29:20;27.47;;;6.63;;
249;SDS011;109;19.806;-70.704;2023-06-14T00:31:47;35.63;;;6.50;;
249;SDS011;109;19.806;-70.704;2023-06-14T00:34:13;26.17;;;6.50;;
249;SDS011;109;19.806;-70.704;2023-06-14T00:36:40;29.87;;;7.73;;
249;SDS011;109;19.806;-70.704;2023-06-14T00:39:07;24.13;;;6.83;;
249;SDS011;109;19.806;-70.704;2023-06-14T00:41:35;22.70;;;7.13;;
249;SDS011;109;19.806;-70.704;2023-06-14T00:44:01;28.57;;;6.80;;
249;SDS011;109;19.806;-70.704;2023-06-14T00:46:35;31.13;;;6.53;;
249;SDS011;109;19.806;-70.704;2023-06-14T00:49:01;21.70;;;6.50;;
249;SDS011;109;19.806;-70.704;2023-06-14T00:51:35;27.83;;;7.50;;
249;SDS011;109;19.806;-70.704;2023-06-14T00:54:03;27.73;;;7.33;;
249;SDS011;109;19.806;-70.704;2023-06-14T00:56:36;25.13;;;7.10;;
249;SDS011;109;19.806;-70.704;2023-06-14T00:59:03;26.77;;;7.20;;
249;SDS011;109;19.806;-70.704;2023-06-14T01:01:36;26.03;;;8.43;;
249;SDS011;109;19.806;-70.704;2023-06-14T01:04:02;28.93;;;7.70;;
249;SDS011;109;19.806;-70.704;2023-06-14T01:06:49;24.57;;;7.90;;
249;SDS011;109;19.806;-70.704;2023-06-14T01:12:39;36.13;;;8.33;;
249;SDS011;109;19.806;-70.704;2023-06-14T01:15:21;31.57;;;7.87;;
249;SDS011;109;19.806;-70.704;2023-06-14T01:17:49;32.03;;;8.77;;
249;SDS011;109;19.806;-70.704;2023-06-14T01:20:26;30.27;;;8.80;;
249;SDS011;109;19.806;-70.704;2023-06-14T01:23:05;34.93;;;9.60;;
249;SDS011;109;19.806;-70.704;2023-06-14T01:25:31;31.50;;;7.80;;
249;SDS011;109;19.806;-70.704;2023-06-14T01:28:05;28.63;;;7.60;;
249;SDS011;109;19.806;-70.704;2023-06-14T01:30:52;25.13;;;6.50;;
249;SDS011;109;19.806;-70.704;2023-06-14T01:33:27;24.50;;;7.50;;
249;SDS011;109;19.806;-70.704;2023-06-14T01:35:57;31.90;;;7.77;;
249;SDS011;109;19.806;-70.704;2023-06-14T01:38:31;31.93;;;7.50;;
249;SDS011;109;19.806;-70.704;2023-06-14T01:40:58;30.13;;;8.03;;
249;SDS011;109;19.806;-70.704;2023-06-14T01:43:34;27.07;;;7.40;;
249;SDS011;109;19.806;-70.704;2023-06-14T01:46:04;22.97;;;7.73;;
249;SDS011;109;19.806;-70.704;2023-06-14T01:48:39;28.23;;;8.50;;
249;SDS011;109;19.806;-70.704;2023-06-14T01:51:05;30.30;;;7.77;;
249;SDS011;109;19.806;-70.704;2023-06-14T01:53:39;22.57;;;7.73;;
249;SDS011;109;19.806;-70.704;2023-06-14T01:56:05;24.07;;;6.50;;
249;SDS011;109;19.806;-70.704;2023-06-14T01:58:39;25.20;;;7.23;;
249;SDS011;109;19.806;-70.704;2023-06-14T02:01:06;26.73;;;7.83;;
249;SDS011;109;19.806;-70.704;2023-06-14T02:03:39;28.60;;;7.90;;
249;SDS011;109;19.806;-70.704;2023-06-14T02:06:05;26.00;;;7.70;;
249;SDS011;109;19.806;-70.704;2023-06-14T02:08:38;28.73;;;7.43;;
249;SDS011;109;19.806;-70.704;2023-06-14T02:11:25;33.47;;;9.17;;
249;SDS011;109;19.806;-70.704;2023-06-14T02:13:59;24.57;;;7.37;;
249;SDS011;109;19.806;-70.704;2023-06-14T02:16:25;30.63;;;8.37;;
249;SDS011;109;19.806;-70.704;2023-06-14T02:19:01;22.70;;;7.50;;
249;SDS011;109;19.806;-70.704;2023-06-14T02:21:28;26.60;;;7.90;;
249;SDS011;109;19.806;-70.704;2023-06-14T02:24:01;22.77;;;7.60;;
249;SDS011;109;19.806;-70.704;2023-06-14T02:26:27;27.50;;;8.00;;
249;SDS011;109;19.806;-70.704;2023-06-14T02:29:01;23.83;;;7.90;;
249;SDS011;109;19.806;-70.704;2023-06-14T02:31:35;23.07;;;7.87;;
249;SDS011;109;19.806;-70.704;2023-06-14T02:34:09;24.77;;;7.37;;
249;SDS011;109;19.806;-70.704;2023-06-14T02:36:35;22.83;;;8.17;;
249;SDS011;109;19.806;-70.704;2023-06-14T02:39:14;29.83;;;7.53;;
249;SDS011;109;19.806;-70.704;2023-06-14T02:41:42;26.67;;;7.63;;
249;SDS011;109;19.806;-70.704;2023-06-14T02:44:19;19.60;;;7.60;;
249;SDS011;109;19.806;-70.704;2023-06-14T02:46:59;28.40;;;8.00;;
249;SDS011;109;19.806;-70.704;2023-06-14T02:49:26;23.10;;;7.27;;
249;SDS011;109;19.806;-70.704;2023-06-14T02:51:59;27.70;;;7.80;;
249;SDS011;109;19.806;-70.704;2023-06-14T02:54:25;20.33;;;7.90;;
249;SDS011;109;19.806;-70.704;2023-06-14T02:56:59;27.23;;;7.60;;
249;SDS011;109;19.806;-70.704;2023-06-14T02:59:34;19.20;;;6.63;;
249;SDS011;109;19.806;-70.704;2023-06-14T03:02:07;21.53;;;7.73;;
249;SDS011;109;19.806;-70.704;2023-06-14T03:04:34;23.23;;;7.73;;
249;SDS011;109;19.806;-70.704;2023-06-14T03:07:12;30.40;;;8.53;;
249;SDS011;109;19.806;-70.704;2023-06-14T03:09:59;20.27;;;7.13;;
249;SDS011;109;19.806;-70.704;2023-06-14T03:12:33;24.87;;;8.23;;
249;SDS011;109;19.806;-70.704;2023-06-14T03:14:59;26.13;;;9.23;;
249;SDS011;109;19.806;-70.704;2023-06-14T03:17:40;28.87;;;7.43;;
249;SDS011;109;19.806;-70.704;2023-06-14T03:20:17;24.83;;;8.27;;
249;SDS011;109;19.806;-70.704;2023-06-14T03:22:46;25.77;;;9.80;;
249;SDS011;109;19.806;-70.704;2023-06-14T03:25:20;31.97;;;8.40;;
249;SDS011;109;19.806;-70.704;2023-06-14T03:27:49;26.43;;;8.13;;
249;SDS011;109;19.806;-70.704;2023-06-14T03:30:23;25.13;;;8.20;;
249;SDS011;109;19.806;-70.704;2023-06-14T03:32:59;19.07;;;8.10;;
249;SDS011;109;19.806;-70.704;2023-06-14T03:35:38;24.97;;;7.80;;
249;SDS011;109;19.806;-70.704;2023-06-14T03:38:12;25.37;;;7.97;;
249;SDS011;109;19.806;-70.704;2023-06-14T03:40:39;32.97;;;9.40;;
249;SDS011;109;19.806;-70.704;2023-06-14T03:43:13;23.07;;;8.00;;
249;SDS011;109;19.806;-70.704;2023-06-14T03:45:39;23.47;;;7.70;;
249;SDS011;109;19.806;-70.704;2023-06-14T03:48:13;19.40;;;7.17;;
249;SDS011;109;19.806;-70.704;2023-06-14T03:50:40;28.00;;;7.90;;
249;SDS011;109;19.806;-70.704;2023-06-14T03:53:15;24.03;;;7.20;;
249;SDS011;109;19.806;-70.704;2023-06-14T03:55:47;20.70;;;7.07;;
249;SDS011;109;19.806;-70.704;2023-06-14T03:58:24;19.13;;;6.27;;
249;SDS011;109;19.806;-70.704;2023-06-14T04:00:57;22.87;;;6.77;;
249;SDS011;109;19.806;-70.704;2023-06-14T04:03:31;26.70;;;6.57;;
249;SDS011;109;19.806;-70.704;2023-06-14T04:06:00;15.00;;;6.10;;
249;SDS011;109;19.806;-70.704;2023-06-14T04:08:34;22.40;;;7.27;;
249;SDS011;109;19.806;-70.704;2023-06-14T04:11:20;15.37;;;5.93;;
249;SDS011;109;19.806;-70.704;2023-06-14T04:13:54;19.23;;;7.03;;
249;SDS011;109;19.806;-70.704;2023-06-14T04:16:22;18.93;;;6.37;;
249;SDS011;109;19.806;-70.704;2023-06-14T04:18:58;12.80;;;6.70;;
249;SDS011;109;19.806;-70.704;2023-06-14T04:21:24;17.40;;;7.00;;
249;SDS011;109;19.806;-70.704;2023-06-14T04:24:02;19.20;;;6.10;;
249;SDS011;109;19.806;-70.704;2023-06-14T04:26:32;18.60;;;6.77;;
249;SDS011;109;19.806;-70.704;2023-06-14T04:29:06;18.77;;;6.47;;
249;SDS011;109;19.806;-70.704;2023-06-14T04:31:40;16.67;;;6.33;;
249;SDS011;109;19.806;-70.704;2023-06-14T04:34:14;12.10;;;6.50;;
249;SDS011;109;19.806;-70.704;2023-06-14T04:36:50;15.77;;;5.90;;
249;SDS011;109;19.806;-70.704;2023-06-14T04:39:30;19.97;;;6.50;;
249;SDS011;109;19.806;-70.704;2023-06-14T04:42:04;19.83;;;6.20;;
249;SDS011;109;19.806;-70.704;2023-06-14T04:44:33;15.33;;;6.20;;
249;SDS011;109;19.806;-70.704;2023-06-14T04:47:07;11.77;;;5.80;;
249;SDS011;109;19.806;-70.704;2023-06-14T04:49:35;12.37;;;6.70;;
249;SDS011;109;19.806;-70.704;2023-06-14T04:52:08;21.00;;;6.50;;
249;SDS011;109;19.806;-70.704;2023-06-14T04:54:39;15.13;;;6.43;;
249;SDS011;109;19.806;-70.704;2023-06-14T04:57:18;11.97;;;6.03;;
249;SDS011;109;19.806;-70.704;2023-06-14T05:00:05;16.17;;;6.10;;
249;SDS011;109;19.806;-70.704;2023-06-14T05:02:39;16.40;;;6.60;;
249;SDS011;109;19.806;-70.704;2023-06-14T05:05:06;19.20;;;6.63;;
249;SDS011;109;19.806;-70.704;2023-06-14T05:07:40;14.10;;;6.60;;
249;SDS011;109;19.806;-70.704;2023-06-14T05:10:26;19.47;;;6.20;;
249;SDS011;109;19.806;-70.704;2023-06-14T05:13:00;19.47;;;7.70;;
249;SDS011;109;19.806;-70.704;2023-06-14T05:15:27;19.30;;;6.90;;
249;SDS011;109;19.806;-70.704;2023-06-14T05:18:01;16.20;;;6.43;;
249;SDS011;109;19.806;-70.704;2023-06-14T05:20:28;22.10;;;7.57;;
249;SDS011;109;19.806;-70.704;2023-06-14T05:23:01;17.67;;;6.73;;
249;SDS011;109;19.806;-70.704;2023-06-14T05:25:28;18.43;;;7.10;;
249;SDS011;109;19.806;-70.704;2023-06-14T05:28:02;18.27;;;7.50;;
249;SDS011;109;19.806;-70.704;2023-06-14T05:30:28;16.73;;;6.80;;
249;SDS011;109;19.806;-70.704;2023-06-14T05:33:10;21.00;;;7.40;;
249;SDS011;109;19.806;-70.704;2023-06-14T05:35:43;17.00;;;7.10;;
249;SDS011;109;19.806;-70.704;2023-06-14T05:38:09;14.77;;;6.80;;
249;SDS011;109;19.806;-70.704;2023-06-14T05:40:43;15.87;;;7.13;;
249;SDS011;109;19.806;-70.704;2023-06-14T05:43:09;23.73;;;7.37;;
249;SDS011;109;19.806;-70.704;2023-06-14T05:45:43;23.87;;;8.27;;
249;SDS011;109;19.806;-70.704;2023-06-14T05:48:09;27.40;;;7.70;;
249;SDS011;109;19.806;-70.704;2023-06-14T05:50:43;16.83;;;6.50;;
249;SDS011;109;19.806;-70.704;2023-06-14T05:53:09;18.47;;;7.83;;
249;SDS011;109;19.806;-70.704;2023-06-14T05:55:43;17.67;;;7.07;;
249;SDS011;109;19.806;-70.704;2023-06-14T05:58:09;23.90;;;8.07;;
249;SDS011;109;19.806;-70.704;2023-06-14T06:00:43;13.53;;;6.80;;
249;SDS011;109;19.806;-70.704;2023-06-14T06:03:10;17.80;;;8.00;;
249;SDS011;109;19.806;-70.704;2023-06-14T06:05:43;20.03;;;7.17;;
249;SDS011;109;19.806;-70.704;2023-06-14T06:08:09;21.03;;;8.03;;
249;SDS011;109;19.806;-70.704;2023-06-14T06:10:43;28.43;;;7.70;;
249;SDS011;109;19.806;-70.704;2023-06-14T06:13:23;19.27;;;6.47;;
249;SDS011;109;19.806;-70.704;2023-06-14T06:15:56;20.53;;;7.30;;
249;SDS011;109;19.806;-70.704;2023-06-14T06:18:30;23.57;;;7.87;;
249;SDS011;109;19.806;-70.704;2023-06-14T06:20:56;25.13;;;7.90;;
249;SDS011;109;19.806;-70.704;2023-06-14T06:23:29;22.30;;;7.70;;
249;SDS011;109;19.806;-70.704;2023-06-14T06:25:55;21.93;;;7.47;;
249;SDS011;109;19.806;-70.704;2023-06-14T06:28:28;19.03;;;6.90;;
249;SDS011;109;19.806;-70.704;2023-06-14T06:30:54;17.43;;;7.60;;
249;SDS011;109;19.806;-70.704;2023-06-14T06:33:27;22.30;;;8.50;;
249;SDS011;109;19.806;-70.704;2023-06-14T06:35:53;21.53;;;7.20;;
249;SDS011;109;19.806;-70.704;2023-06-14T06:38:27;19.40;;;6.53;;
249;SDS011;109;19.806;-70.704;2023-06-14T06:40:53;21.10;;;7.53;;
249;SDS011;109;19.806;-70.704;2023-06-14T06:43:27;28.33;;;7.37;;
249;SDS011;109;19.806;-70.704;2023-06-14T06:45:56;20.37;;;6.80;;
249;SDS011;109;19.806;-70.704;2023-06-14T06:48:29;18.80;;;7.53;;
249;SDS011;109;19.806;-70.704;2023-06-14T06:50:55;16.97;;;7.90;;
249;SDS011;109;19.806;-70.704;2023-06-14T06:53:29;13.90;;;6.70;;
249;SDS011;109;19.806;-70.704;2023-06-14T06:55:55;27.00;;;7.63;;
249;SDS011;109;19.806;-70.704;2023-06-14T06:58:36;17.40;;;6.70;;
249;SDS011;109;19.806;-70.704;2023-06-14T07:01:10;24.03;;;7.10;;
249;SDS011;109;19.806;-70.704;2023-06-14T07:03:37;13.87;;;7.27;;
249;SDS011;109;19.806;-70.704;2023-06-14T07:06:10;16.10;;;6.97;;
249;SDS011;109;19.806;-70.704;2023-06-14T07:08:36;15.40;;;6.80;;
249;SDS011;109;19.806;-70.704;2023-06-14T07:11:11;15.50;;;7.00;;
249;SDS011;109;19.806;-70.704;2023-06-14T07:13:51;19.90;;;7.53;;
249;SDS011;109;19.806;-70.704;2023-06-14T07:16:18;19.83;;;7.90;;
249;SDS011;109;19.806;-70.704;2023-06-14T07:18:51;25.53;;;7.70;;
249;SDS011;109;19.806;-70.704;2023-06-14T07:21:18;22.77;;;7.70;;
249;SDS011;109;19.806;-70.704;2023-06-14T07:23:52;19.13;;;8.00;;
249;SDS011;109;19.806;-70.704;2023-06-14T07:26:19;24.83;;;8.90;;
249;SDS011;109;19.806;-70.704;2023-06-14T07:28:53;27.67;;;8.67;;
249;SDS011;109;19.806;-70.704;2023-06-14T07:31:19;20.13;;;7.30;;
249;SDS011;109;19.806;-70.704;2023-06-14T07:33:53;16.60;;;7.30;;
249;SDS011;109;19.806;-70.704;2023-06-14T07:36:19;15.83;;;7.67;;
249;SDS011;109;19.806;-70.704;2023-06-14T07:38:53;20.60;;;8.00;;
249;SDS011;109;19.806;-70.704;2023-06-14T07:41:20;19.67;;;8.80;;
249;SDS011;109;19.806;-70.704;2023-06-14T07:43:53;21.00;;;8.00;;
249;SDS011;109;19.806;-70.704;2023-06-14T07:46:19;25.30;;;8.67;;
249;SDS011;109;19.806;-70.704;2023-06-14T07:48:53;26.83;;;8.30;;
249;SDS011;109;19.806;-70.704;2023-06-14T07:51:27;18.30;;;7.97;;
249;SDS011;109;19.806;-70.704;2023-06-14T07:54:01;21.50;;;8.83;;
249;SDS011;109;19.806;-70.704;2023-06-14T07:56:27;22.70;;;8.40;;
249;SDS011;109;19.806;-70.704;2023-06-14T07:59:00;17.63;;;7.40;;
249;SDS011;109;19.806;-70.704;2023-06-14T08:01:26;14.90;;;8.30;;
249;SDS011;109;19.806;-70.704;2023-06-14T08:04:00;21.57;;;8.40;;
249;SDS011;109;19.806;-70.704;2023-06-14T08:06:26;33.37;;;11.93;;
249;SDS011;109;19.806;-70.704;2023-06-14T08:09:00;13.87;;;8.20;;
249;SDS011;109;19.806;-70.704;2023-06-14T08:11:46;17.83;;;8.70;;
249;SDS011;109;19.806;-70.704;2023-06-14T08:14:20;16.13;;;8.80;;
249;SDS011;109;19.806;-70.704;2023-06-14T08:16:46;18.37;;;8.60;;
249;SDS011;109;19.806;-70.704;2023-06-14T08:19:19;18.57;;;10.03;;
249;SDS011;109;19.806;-70.704;2023-06-14T08:21:45;24.70;;;11.07;;
249;SDS011;109;19.806;-70.704;2023-06-14T08:24:20;20.10;;;9.83;;
249;SDS011;109;19.806;-70.704;2023-06-14T08:26:56;15.57;;;9.60;;
249;SDS011;109;19.806;-70.704;2023-06-14T08:29:33;17.83;;;9.90;;
249;SDS011;109;19.806;-70.704;2023-06-14T08:31:59;19.33;;;8.60;;
249;SDS011;109;19.806;-70.704;2023-06-14T08:34:39;20.93;;;9.10;;
249;SDS011;109;19.806;-70.704;2023-06-14T08:37:13;12.90;;;8.83;;
249;SDS011;109;19.806;-70.704;2023-06-14T08:39:39;17.43;;;9.03;;
249;SDS011;109;19.806;-70.704;2023-06-14T08:42:13;18.67;;;9.80;;
249;SDS011;109;19.806;-70.704;2023-06-14T08:44:41;15.90;;;8.93;;
249;SDS011;109;19.806;-70.704;2023-06-14T08:47:14;21.60;;;10.00;;
249;SDS011;109;19.806;-70.704;2023-06-14T08:49:51;24.07;;;10.23;;
249;SDS011;109;19.806;-70.704;2023-06-14T08:52:21;21.30;;;9.90;;
249;SDS011;109;19.806;-70.704;2023-06-14T08:54:55;18.53;;;10.57;;
249;SDS011;109;19.806;-70.704;2023-06-14T08:57:23;15.37;;;9.30;;
249;SDS011;109;19.806;-70.704;2023-06-14T08:59:57;19.00;;;8.83;;
249;SDS011;109;19.806;-70.704;2023-06-14T09:02:35;14.33;;;9.00;;
249;SDS011;109;19.806;-70.704;2023-06-14T09:05:03;21.37;;;9.03;;
249;SDS011;109;19.806;-70.704;2023-06-14T09:07:37;21.93;;;9.57;;
249;SDS011;109;19.806;-70.704;2023-06-14T09:10:23;18.37;;;8.63;;
249;SDS011;109;19.806;-70.704;2023-06-14T09:12:58;16.30;;;9.43;;
249;SDS011;109;19.806;-70.704;2023-06-14T09:15:26;23.13;;;9.97;;
249;SDS011;109;19.806;-70.704;2023-06-14T09:18:01;13.77;;;8.60;;
249;SDS011;109;19.806;-70.704;2023-06-14T09:20:35;24.20;;;9.53;;
249;SDS011;109;19.806;-70.704;2023-06-14T09:23:09;16.70;;;8.57;;
249;SDS011;109;19.806;-70.704;2023-06-14T09:25:42;20.83;;;9.63;;
249;SDS011;109;19.806;-70.704;2023-06-14T09:28:16;18.33;;;9.00;;
249;SDS011;109;19.806;-70.704;2023-06-14T09:30:43;17.93;;;8.40;;
249;SDS011;109;19.806;-70.704;2023-06-14T09:33:19;14.70;;;8.83;;
249;SDS011;109;19.806;-70.704;2023-06-14T09:35:55;17.10;;;9.13;;
249;SDS011;109;19.806;-70.704;2023-06-14T09:38:23;17.97;;;9.10;;
249;SDS011;109;19.806;-70.704;2023-06-14T09:40:57;15.93;;;8.13;;
249;SDS011;109;19.806;-70.704;2023-06-14T09:43:24;18.80;;;9.80;;
249;SDS011;109;19.806;-70.704;2023-06-14T09:46:02;19.07;;;9.20;;
249;SDS011;109;19.806;-70.704;2023-06-14T09:48:37;23.30;;;9.80;;
249;SDS011;109;19.806;-70.704;2023-06-14T09:51:14;20.60;;;8.77;;
249;SDS011;109;19.806;-70.704;2023-06-14T09:53:43;19.63;;;8.77;;
249;SDS011;109;19.806;-70.704;2023-06-14T09:56:37;16.30;;;8.73;;
249;SDS011;109;19.806;-70.704;2023-06-14T09:59:16;17.97;;;8.93;;
249;SDS011;109;19.806;-70.704;2023-06-14T10:01:54;17.30;;;8.20;;
249;SDS011;109;19.806;-70.704;2023-06-14T10:04:32;16.70;;;9.03;;
249;SDS011;109;19.806;-70.704;2023-06-14T10:07:00;20.73;;;9.60;;
249;SDS011;109;19.806;-70.704;2023-06-14T10:09:35;20.53;;;8.53;;
249;SDS011;109;19.806;-70.704;2023-06-14T10:12:28;19.70;;;9.27;;
249;SDS011;109;19.806;-70.704;2023-06-14T10:15:01;20.37;;;8.60;;
249;SDS011;109;19.806;-70.704;2023-06-14T10:21:21;24.67;;;9.50;;
249;SDS011;109;19.806;-70.704;2023-06-14T10:23:28;20.00;;;9.70;;
249;SDS011;109;19.806;-70.704;2023-06-14T10:25:57;23.10;;;9.20;;
249;SDS011;109;19.806;-70.704;2023-06-14T10:28:32;16.50;;;8.53;;
249;SDS011;109;19.806;-70.704;2023-06-14T10:31:12;13.33;;;9.23;;
249;SDS011;109;19.806;-70.704;2023-06-14T10:33:49;25.50;;;9.57;;
249;SDS011;109;19.806;-70.704;2023-06-14T10:42:05;16.50;;;9.53;;
249;SDS011;109;19.806;-70.704;2023-06-14T10:45:11;22.57;;;9.87;;
249;SDS011;109;19.806;-70.704;2023-06-14T10:47:37;19.03;;;9.63;;
249;SDS011;109;19.806;-70.704;2023-06-14T10:50:08;22.20;;;9.67;;
249;SDS011;109;19.806;-70.704;2023-06-14T10:52:43;24.93;;;9.90;;
249;SDS011;109;19.806;-70.704;2023-06-14T10:55:13;20.03;;;9.13;;
249;SDS011;109;19.806;-70.704;2023-06-14T10:57:48;25.53;;;10.70;;
249;SDS011;109;19.806;-70.704;2023-06-14T11:00:22;17.20;;;9.17;;
249;SDS011;109;19.806;-70.704;2023-06-14T11:05:55;19.90;;;8.60;;
249;SDS011;109;19.806;-70.704;2023-06-14T11:11:29;32.70;;;10.20;;
249;SDS011;109;19.806;-70.704;2023-06-14T11:14:01;20.87;;;10.30;;
249;SDS011;109;19.806;-70.704;2023-06-14T11:16:29;18.27;;;10.33;;
249;SDS011;109;19.806;-70.704;2023-06-14T11:19:00;18.30;;;10.10;;
249;SDS011;109;19.806;-70.704;2023-06-14T11:21:34;28.67;;;10.60;;
249;SDS011;109;19.806;-70.704;2023-06-14T11:24:09;16.60;;;9.60;;
249;SDS011;109;19.806;-70.704;2023-06-14T11:26:38;18.17;;;9.87;;
249;SDS011;109;19.806;-70.704;2023-06-14T11:29:06;17.87;;;9.20;;
249;SDS011;109;19.806;-70.704;2023-06-14T11:31:33;17.80;;;9.10;;
249;SDS011;109;19.806;-70.704;2023-06-14T11:34:00;24.23;;;9.63;;
249;SDS011;109;19.806;-70.704;2023-06-14T11:36:29;17.33;;;8.97;;
249;SDS011;109;19.806;-70.704;2023-06-14T11:39:01;19.97;;;10.23;;
249;SDS011;109;19.806;-70.704;2023-06-14T11:41:47;19.17;;;9.90;;
249;SDS011;109;19.806;-70.704;2023-06-14T11:44:13;18.20;;;9.60;;
249;SDS011;109;19.806;-70.704;2023-06-14T11:46:39;18.03;;;9.60;;
249;SDS011;109;19.806;-70.704;2023-06-14T11:49:06;24.50;;;10.80;;
249;SDS011;109;19.806;-70.704;2023-06-14T11:51:34;23.70;;;10.67;;
249;SDS011;109;19.806;-70.704;2023-06-14T11:54:02;25.43;;;10.43;;
249;SDS011;109;19.806;-70.704;2023-06-14T11:56:30;23.47;;;10.30;;
249;SDS011;109;19.806;-70.704;2023-06-14T11:58:58;29.20;;;10.83;;
249;SDS011;109;19.806;-70.704;2023-06-14T12:01:24;28.00;;;11.23;;
249;SDS011;109;19.806;-70.704;2023-06-14T12:03:52;29.07;;;11.00;;
249;SDS011;109;19.806;-70.704;2023-06-14T12:06:27;22.80;;;10.13;;
249;SDS011;109;19.806;-70.704;2023-06-14T12:08:58;22.83;;;11.60;;
249;SDS011;109;19.806;-70.704;2023-06-14T12:11:34;15.90;;;8.70;;
249;SDS011;109;19.806;-70.704;2023-06-14T12:14:02;22.50;;;12.87;;
249;SDS011;109;19.806;-70.704;2023-06-14T12:16:34;25.37;;;12.20;;
249;SDS011;109;19.806;-70.704;2023-06-14T12:19:12;19.30;;;11.00;;
249;SDS011;109;19.806;-70.704;2023-06-14T12:21:40;16.37;;;9.27;;
249;SDS011;109;19.806;-70.704;2023-06-14T12:24:07;19.70;;;9.73;;
249;SDS011;109;19.806;-70.704;2023-06-14T12:26:37;24.40;;;9.47;;
249;SDS011;109;19.806;-70.704;2023-06-14T12:29:05;17.70;;;8.90;;
249;SDS011;109;19.806;-70.704;2023-06-14T12:31:32;21.23;;;9.27;;
249;SDS011;109;19.806;-70.704;2023-06-14T12:34:00;21.10;;;10.30;;
249;SDS011;109;19.806;-70.704;2023-06-14T12:36:26;25.90;;;11.23;;
249;SDS011;109;19.806;-70.704;2023-06-14T12:38:53;18.40;;;10.90;;
249;SDS011;109;19.806;-70.704;2023-06-14T12:41:20;16.50;;;11.03;;
249;SDS011;109;19.806;-70.704;2023-06-14T12:43:48;19.83;;;11.70;;
249;SDS011;109;19.806;-70.704;2023-06-14T12:46:14;22.77;;;11.83;;
249;SDS011;109;19.806;-70.704;2023-06-14T12:48:41;16.33;;;11.80;;
249;SDS011;109;19.806;-70.704;2023-06-14T12:51:07;28.00;;;13.00;;
249;SDS011;109;19.806;-70.704;2023-06-14T12:53:34;22.47;;;11.90;;
249;SDS011;109;19.806;-70.704;2023-06-14T12:56:00;22.67;;;11.83;;
249;SDS011;109;19.806;-70.704;2023-06-14T12:58:26;17.53;;;11.40;;
249;SDS011;109;19.806;-70.704;2023-06-14T13:00:53;20.03;;;11.83;;
249;SDS011;109;19.806;-70.704;2023-06-14T13:03:20;23.50;;;11.63;;
249;SDS011;109;19.806;-70.704;2023-06-14T13:05:46;17.20;;;11.63;;
249;SDS011;109;19.806;-70.704;2023-06-14T13:08:13;19.03;;;11.63;;
249;SDS011;109;19.806;-70.704;2023-06-14T13:10:39;24.33;;;12.90;;
249;SDS011;109;19.806;-70.704;2023-06-14T13:13:06;28.57;;;13.00;;
249;SDS011;109;19.806;-70.704;2023-06-14T13:15:33;22.47;;;12.40;;
249;SDS011;109;19.806;-70.704;2023-06-14T13:17:59;22.93;;;12.07;;
249;SDS011;109;19.806;-70.704;2023-06-14T13:20:26;29.33;;;12.40;;
249;SDS011;109;19.806;-70.704;2023-06-14T13:22:52;25.03;;;11.03;;
249;SDS011;109;19.806;-70.704;2023-06-14T13:25:19;26.20;;;11.47;;
249;SDS011;109;19.806;-70.704;2023-06-14T13:27:46;20.27;;;11.70;;
249;SDS011;109;19.806;-70.704;2023-06-14T13:30:12;26.27;;;10.83;;
249;SDS011;109;19.806;-70.704;2023-06-14T13:32:39;27.40;;;10.90;;
249;SDS011;109;19.806;-70.704;2023-06-14T13:35:05;28.63;;;11.53;;
249;SDS011;109;19.806;-70.704;2023-06-14T13:37:32;27.30;;;11.80;;
249;SDS011;109;19.806;-70.704;2023-06-14T13:39:59;25.57;;;13.00;;
249;SDS011;109;19.806;-70.704;2023-06-14T13:42:25;25.07;;;11.93;;
249;SDS011;109;19.806;-70.704;2023-06-14T13:44:52;30.90;;;12.20;;
249;SDS011;109;19.806;-70.704;2023-06-14T13:47:18;37.70;;;11.80;;
249;SDS011;109;19.806;-70.704;2023-06-14T13:49:45;30.53;;;10.00;;
249;SDS011;109;19.806;-70.704;2023-06-14T13:52:11;27.10;;;9.57;;
249;SDS011;109;19.806;-70.704;2023-06-14T13:54:39;20.60;;;9.23;;
249;SDS011;109;19.806;-70.704;2023-06-14T13:57:05;22.63;;;9.60;;
249;SDS011;109;19.806;-70.704;2023-06-14T13:59:32;20.47;;;9.50;;
249;SDS011;109;19.806;-70.704;2023-06-14T14:01:59;24.23;;;9.50;;
249;SDS011;109;19.806;-70.704;2023-06-14T14:04:26;25.60;;;9.50;;
249;SDS011;109;19.806;-70.704;2023-06-14T14:06:55;19.90;;;9.10;;
249;SDS011;109;19.806;-70.704;2023-06-14T14:09:22;22.80;;;9.50;;
249;SDS011;109;19.806;-70.704;2023-06-14T14:11:48;21.30;;;9.00;;
249;SDS011;109;19.806;-70.704;2023-06-14T14:14:15;21.43;;;8.80;;
249;SDS011;109;19.806;-70.704;2023-06-14T14:16:41;17.77;;;9.17;;
249;SDS011;109;19.806;-70.704;2023-06-14T14:19:08;25.63;;;9.93;;
249;SDS011;109;19.806;-70.704;2023-06-14T14:21:35;17.27;;;9.27;;
249;SDS011;109;19.806;-70.704;2023-06-14T14:24:01;18.33;;;9.63;;
249;SDS011;109;19.806;-70.704;2023-06-14T14:26:28;20.43;;;9.43;;
249;SDS011;109;19.806;-70.704;2023-06-14T14:28:55;24.57;;;9.53;;
249;SDS011;109;19.806;-70.704;2023-06-14T14:31:21;23.83;;;10.17;;
249;SDS011;109;19.806;-70.704;2023-06-14T14:33:47;25.50;;;9.23;;
249;SDS011;109;19.806;-70.704;2023-06-14T14:36:14;26.57;;;10.90;;
249;SDS011;109;19.806;-70.704;2023-06-14T14:38:40;23.93;;;9.03;;
249;SDS011;109;19.806;-70.704;2023-06-14T14:41:08;24.53;;;8.73;;
249;SDS011;109;19.806;-70.704;2023-06-14T14:43:34;18.80;;;8.37;;
249;SDS011;109;19.806;-70.704;2023-06-14T14:46:00;20.30;;;8.87;;
249;SDS011;109;19.806;-70.704;2023-06-14T14:48:27;21.67;;;9.27;;
249;SDS011;109;19.806;-70.704;2023-06-14T14:50:53;26.13;;;9.27;;
249;SDS011;109;19.806;-70.704;2023-06-14T14:53:20;25.13;;;8.90;;
249;SDS011;109;19.806;-70.704;2023-06-14T14:55:47;19.23;;;8.67;;
249;SDS011;109;19.806;-70.704;2023-06-14T14:58:13;25.00;;;9.20;;
249;SDS011;109;19.806;-70.704;2023-06-14T15:00:46;22.77;;;8.97;;
249;SDS011;109;19.806;-70.704;2023-06-14T15:03:14;20.27;;;8.00;;
249;SDS011;109;19.806;-70.704;2023-06-14T15:05:40;22.30;;;9.30;;
249;SDS011;109;19.806;-70.704;2023-06-14T15:08:07;24.60;;;8.43;;
249;SDS011;109;19.806;-70.704;2023-06-14T15:10:40;23.43;;;9.37;;
249;SDS011;109;19.806;-70.704;2023-06-14T15:13:07;30.23;;;9.10;;
249;SDS011;109;19.806;-70.704;2023-06-14T15:15:34;25.13;;;8.33;;
249;SDS011;109;19.806;-70.704;2023-06-14T15:18:13;15.47;;;7.43;;
249;SDS011;109;19.806;-70.704;2023-06-14T15:20:40;21.40;;;8.13;;
249;SDS011;109;19.806;-70.704;2023-06-14T15:23:14;20.37;;;8.10;;
249;SDS011;109;19.806;-70.704;2023-06-14T15:25:45;16.73;;;7.60;;
249;SDS011;109;19.806;-70.704;2023-06-14T15:28:15;21.60;;;8.63;;
249;SDS011;109;19.806;-70.704;2023-06-14T15:30:41;27.93;;;8.27;;
249;SDS011;109;19.806;-70.704;2023-06-14T15:33:08;22.90;;;8.83;;
249;SDS011;109;19.806;-70.704;2023-06-14T15:35:34;14.40;;;8.03;;
249;SDS011;109;19.806;-70.704;2023-06-14T15:38:01;28.37;;;9.07;;
249;SDS011;109;19.806;-70.704;2023-06-14T15:40:27;15.53;;;7.93;;
249;SDS011;109;19.806;-70.704;2023-06-14T15:42:54;21.33;;;11.70;;